Terminal Aerodrome Forecast
Issued by NWS

Home | Current Version | Previous Version | Text Only | Print | Product List | Glossary On
Versions: 1 2 3 4 5 6 7 8 9 10 11 12
000
FTUS44 KTSA 270520
TAFBVO
TAF
KBVO 270520Z 2706/2806 19005KT P6SM VCTS FEW050CB BKN250
     FM271500 24006KT P6SM SCT050 BKN250
     FM272000 28009KT P6SM SCT050 BKN250 PROB30 2720/2801 5SM -TSRA
      BR BKN040CB
     FM280100 01005KT P6SM BKN100=

USA.gov is the U.S. government's official web portal to all federal, state and local government web resources and services.